地図

経路データ

SID SEASON NUMBER BASIN SUBBASIN NAME ISO_TIME NATURE LAT LON WMO_WIND WMO_PRES WMO_AGENCY TRACK_TYPE DIST2LAND LANDFALL IFLAG USA_AGENCY USA_ATCF_ID USA_LAT USA_LON USA_RECORD USA_STATUS USA_WIND USA_PRES USA_SSHS USA_R34_NE USA_R34_SE USA_R34_SW USA_R34_NW USA_R50_NE USA_R50_SE USA_R50_SW USA_R50_NW USA_R64_NE USA_R64_SE USA_R64_SW USA_R64_NW USA_POCI USA_ROCI USA_RMW USA_EYE TOKYO_LAT TOKYO_LON TOKYO_GRADE TOKYO_WIND TOKYO_PRES TOKYO_R50_DIR TOKYO_R50_LONG TOKYO_R50_SHORT TOKYO_R30_DIR TOKYO_R30_LONG TOKYO_R30_SHORT TOKYO_LAND CMA_LAT CMA_LON CMA_CAT CMA_WIND CMA_PRES HKO_LAT HKO_LON HKO_CAT HKO_WIND HKO_PRES NEWDELHI_LAT NEWDELHI_LON NEWDELHI_GRADE NEWDELHI_WIND NEWDELHI_PRES NEWDELHI_CI NEWDELHI_DP NEWDELHI_POCI REUNION_LAT REUNION_LON REUNION_TYPE REUNION_WIND REUNION_PRES REUNION_TNUM REUNION_CI REUNION_RMW REUNION_R34_NE REUNION_R34_SE REUNION_R34_SW REUNION_R34_NW REUNION_R50_NE REUNION_R50_SE REUNION_R50_SW REUNION_R50_NW REUNION_R64_NE REUNION_R64_SE REUNION_R64_SW REUNION_R64_NW BOM_LAT BOM_LON BOM_TYPE BOM_WIND BOM_PRES BOM_TNUM BOM_CI BOM_RMW BOM_R34_NE BOM_R34_SE BOM_R34_SW BOM_R34_NW BOM_R50_NE BOM_R50_SE BOM_R50_SW BOM_R50_NW BOM_R64_NE BOM_R64_SE BOM_R64_SW BOM_R64_NW BOM_ROCI BOM_POCI BOM_EYE BOM_POS_METHOD BOM_PRES_METHOD NADI_LAT NADI_LON NADI_CAT NADI_WIND NADI_PRES WELLINGTON_LAT WELLINGTON_LON WELLINGTON_WIND WELLINGTON_PRES DS824_LAT DS824_LON DS824_STAGE DS824_WIND DS824_PRES TD9636_LAT TD9636_LON TD9636_STAGE TD9636_WIND TD9636_PRES TD9635_LAT TD9635_LON TD9635_WIND TD9635_PRES TD9635_ROCI NEUMANN_LAT NEUMANN_LON NEUMANN_CLASS NEUMANN_WIND NEUMANN_PRES MLC_LAT MLC_LON MLC_CLASS MLC_WIND MLC_PRES USA_GUST BOM_GUST BOM_GUST_PER REUNION_GUST REUNION_GUST_PER USA_SEAHGT USA_SEARAD_NE USA_SEARAD_SE USA_SEARAD_SW USA_SEARAD_NW STORM_SPEED STORM_DIR
1981234N18253 1981 69 EP MM HILARY 1981-08-21 18:00:00 TS 17.5000 -107.500 30 hurdat_epa main 338 329 O_________O___ hurdat_epa EP081981 17.5000 -107.500 TD 30 -1 17.5000 -107.500 1 30 9 328
1981234N18253 1981 69 EP MM HILARY 1981-08-21 21:00:00 TS 17.8682 -107.739 main 323 323 P_________P___ EP081981 17.8725 -107.737 TD 32 -1 17.8552 -107.745 1 32 9 326
1981234N18253 1981 69 EP MM HILARY 1981-08-22 00:00:00 TS 18.2000 -108.000 35 hurdat_epa main 329 329 O_________O___ hurdat_epa EP081981 18.2000 -108.000 TS 35 0 18.2000 -108.000 2 35 8 319
1981234N18253 1981 69 EP MM HILARY 1981-08-22 03:00:00 TS 18.4744 -108.293 main 338 338 P_________P___ EP081981 18.4575 -108.300 TS 35 0 18.5249 -108.272 2 35 8 314
1981234N18253 1981 69 EP MM HILARY 1981-08-22 06:00:00 TS 18.7304 -108.588 35 hurdat_epa main 356 351 O_________P___ hurdat_epa EP081981 18.7000 -108.600 TS 35 0 18.8216 -108.553 2 35 8 317
1981234N18253 1981 69 EP MM HILARY 1981-08-22 09:00:00 TS 19.0262 -108.840 main 360 360 P_________P___ EP081981 19.0074 -108.843 TS 35 0 19.0825 -108.833 2 35 8 320
1981234N18253 1981 69 EP MM HILARY 1981-08-22 12:00:00 TS 19.3000 -109.100 35 hurdat_epa main 376 376 O_________O___ hurdat_epa EP081981 19.3000 -109.100 TS 35 0 19.3000 -109.100 2 35 8 311
1981234N18253 1981 69 EP MM HILARY 1981-08-22 15:00:00 TS 19.5254 -109.446 main 382 357 P_________P___ EP081981 19.5377 -109.472 TS 35 0 19.4884 -109.368 2 35 7 302
1981234N18253 1981 69 EP MM HILARY 1981-08-22 18:00:00 TS 19.6831 -109.754 35 hurdat_epa main 357 346 O_________P___ hurdat_epa EP081981 19.7000 -109.800 TS 35 0 19.6325 -109.618 2 35 5 299
1981234N18253 1981 69 EP MM HILARY 1981-08-22 21:00:00 TS 19.7687 -109.917 main 346 346 P_________P___ EP081981 19.7799 -109.945 TS 35 0 19.7353 -109.834 2 35 3 297
1981234N18253 1981 69 EP MM HILARY 1981-08-23 00:00:00 TS 19.8000 -110.000 35 hurdat_epa main 346 346 O_________O___ hurdat_epa EP081981 19.8000 -110.000 TS 35 0 19.8000 -110.000 2 35 1 288
1981234N18253 1981 69 EP MM HILARY 1981-08-23 03:00:00 TS 19.8156 -110.067 main 346 346 P_________P___ EP081981 19.8075 -110.058 TS 37 0 19.8398 -110.096 2 36 1 276
1981234N18253 1981 69 EP MM HILARY 1981-08-23 06:00:00 TS 19.8112 -110.111 40 hurdat_epa main 346 346 O_________P___ hurdat_epa EP081981 19.8000 -110.100 TS 40 0 19.8448 -110.145 2 37 1 264
1981234N18253 1981 69 EP MM HILARY 1981-08-23 09:00:00 TS 19.8068 -110.155 main 347 347 P_________P___ EP081981 19.8000 -110.150 TS 40 0 19.8274 -110.171 2 38 1 262
1981234N18253 1981 69 EP MM HILARY 1981-08-23 12:00:00 TS 19.8000 -110.200 40 hurdat_epa main 347 347 O_________O___ hurdat_epa EP081981 19.8000 -110.200 TS 40 0 19.8000 -110.200 2 40 1 265
1981234N18253 1981 69 EP MM HILARY 1981-08-23 15:00:00 TS 19.8001 -110.241 main 347 347 P_________P___ EP081981 19.8075 -110.242 TS 40 0 19.7780 -110.235 2 40 1 262
1981234N18253 1981 69 EP MM HILARY 1981-08-23 18:00:00 TS 19.7874 -110.296 40 hurdat_epa main 348 348 O_________P___ hurdat_epa EP081981 19.8000 -110.300 TS 40 0 19.7497 -110.283 2 40 1 244
1981234N18253 1981 69 EP MM HILARY 1981-08-23 21:00:00 TS 19.7429 -110.368 main 360 360 P_________P___ EP081981 19.7499 -110.370 TS 40 0 19.7216 -110.363 2 40 2 246
1981234N18253 1981 69 EP MM HILARY 1981-08-24 00:00:00 TS 19.7000 -110.500 40 hurdat_epa main 361 361 O_________O___ hurdat_epa EP081981 19.7000 -110.500 TS 40 0 19.7000 -110.500 2 40 3 261
1981234N18253 1981 69 EP MM HILARY 1981-08-24 03:00:00 TS 19.6895 -110.711 main 365 365 P_________P___ EP081981 19.6925 -110.720 TS 42 0 19.6804 -110.685 2 41 5 269
1981234N18253 1981 69 EP MM HILARY 1981-08-24 06:00:00 TS 19.6924 -110.983 45 hurdat_epa main 372 372 O_________P___ hurdat_epa EP081981 19.7000 -111.000 TS 45 0 19.6695 -110.930 2 42 5 270
1981234N18253 1981 69 EP MM HILARY 1981-08-24 09:00:00 TS 19.6878 -111.267 main 382 382 P_________P___ EP081981 19.6924 -111.278 TS 45 0 19.6739 -111.235 2 43 6 271
1981234N18253 1981 69 EP MM HILARY 1981-08-24 12:00:00 TS 19.7000 -111.600 45 hurdat_epa main 394 394 O_________O___ hurdat_epa EP081981 19.7000 -111.600 TS 45 0 19.7000 -111.600 2 45 7 274
1981234N18253 1981 69 EP MM HILARY 1981-08-24 15:00:00 TS 19.7354 -111.972 main 413 409 P_________P___ EP081981 19.7348 -111.963 TS 50 0 19.7371 -112.002 2 48 8 277
1981234N18253 1981 69 EP MM HILARY 1981-08-24 18:00:00 TS 19.7993 -112.415 55 hurdat_epa main 426 426 O_________P___ hurdat_epa EP081981 19.8000 -112.400 TS 55 0 19.7973 -112.461 2 52 9 279
1981234N18253 1981 69 EP MM HILARY 1981-08-24 21:00:00 TS 19.8847 -112.931 main 450 450 P_________P___ EP081981 19.8849 -112.920 TS 57 0 19.8838 -112.964 2 56 10 281
1981234N18253 1981 69 EP MM HILARY 1981-08-25 00:00:00 TS 20.0000 -113.500 60 hurdat_epa main 486 486 O_________O___ hurdat_epa EP081981 20.0000 -113.500 TS 60 0 20.0000 -113.500 2 60 11 283
1981234N18253 1981 69 EP MM HILARY 1981-08-25 03:00:00 TS 20.1376 -114.081 main 527 520 P_________P___ EP081981 20.1349 -114.100 TS 60 0 20.1455 -114.022 2 62 11 286
1981234N18253 1981 69 EP MM HILARY 1981-08-25 06:00:00 TS 20.3047 -114.669 60 hurdat_epa main 556 552 O_________P___ hurdat_epa EP081981 20.3000 -114.700 TS 60 0 20.3188 -114.575 2 65 11 289
1981234N18253 1981 69 EP MM HILARY 1981-08-25 09:00:00 TS 20.5016 -115.223 main 567 567 P_________P___ EP081981 20.4996 -115.243 TS 65 1 20.5078 -115.166 2 67 11 290
1981234N18253 1981 69 EP MM HILARY 1981-08-25 12:00:00 TS 20.7000 -115.800 70 hurdat_epa main 586 586 O_________O___ hurdat_epa EP081981 20.7000 -115.800 HU 70 1 20.7000 -115.800 3 70 12 288
1981234N18253 1981 69 EP MM HILARY 1981-08-25 15:00:00 TS 20.8590 -116.431 main 611 611 P_________P___ EP081981 20.8496 -116.413 HU 72 1 20.8872 -116.486 3 71 13 284
1981234N18253 1981 69 EP MM HILARY 1981-08-25 18:00:00 TS 21.0181 -117.128 75 hurdat_epa main 657 657 O_________P___ hurdat_epa EP081981 21.0000 -117.100 HU 75 1 21.0725 -117.212 3 72 14 284
1981234N18253 1981 69 EP MM HILARY 1981-08-25 21:00:00 TS 21.2116 -117.903 main 708 708 P_________P___ EP081981 21.2000 -117.885 HU 75 1 21.2465 -117.958 3 73 15 285
1981234N18253 1981 69 EP MM HILARY 1981-08-26 00:00:00 TS 21.4000 -118.700 75 hurdat_epa main 765 765 O_________O___ hurdat_epa EP081981 21.4000 -118.700 HU 75 1 21.4000 -118.700 4 75 15 284
1981234N18253 1981 69 EP MM HILARY 1981-08-26 03:00:00 TS 21.5657 -119.466 main 810 810 P_________P___ EP081981 21.5722 -119.473 HU 72 1 21.5459 -119.448 4 72 14 282
1981234N18253 1981 69 EP MM HILARY 1981-08-26 06:00:00 TS 21.6919 -120.196 70 hurdat_epa main 849 849 O_________P___ hurdat_epa EP081981 21.7000 -120.200 HU 70 1 21.6677 -120.182 4 70 13 279
1981234N18253 1981 69 EP MM HILARY 1981-08-26 09:00:00 TS 21.7736 -120.873 main 887 887 P_________P___ EP081981 21.7796 -120.873 HU 67 1 21.7556 -120.876 4 67 12 275
1981234N18253 1981 69 EP MM HILARY 1981-08-26 12:00:00 TS 21.8000 -121.500 65 hurdat_epa main 929 929 O_________O___ hurdat_epa EP081981 21.8000 -121.500 HU 65 1 21.8000 -121.500 4 65 12 270
1981234N18253 1981 69 EP MM HILARY 1981-08-26 15:00:00 TS 21.7737 -122.120 main 973 973 P_________P___ EP081981 21.7651 -122.153 HU 57 0 21.7997 -122.022 4 60 11 265
1981234N18253 1981 69 EP MM HILARY 1981-08-26 18:00:00 TS 21.7145 -122.644 50 hurdat_epa main 1018 1018 O_________P___ hurdat_epa EP081981 21.7000 -122.700 TS 50 0 21.7580 -122.476 4 55 8 262
1981234N18253 1981 69 EP MM HILARY 1981-08-26 21:00:00 TS 21.6646 -122.995 main 1049 1049 P_________P___ EP081981 21.6570 -123.030 TS 47 0 21.6875 -122.891 4 50 6 259
1981234N18253 1981 69 EP MM HILARY 1981-08-27 00:00:00 TS 21.6000 -123.300 45 hurdat_epa main 1079 1079 O_________O___ hurdat_epa EP081981 21.6000 -123.300 TS 45 0 21.6000 -123.300 2 45 7 256
1981234N18253 1981 69 EP MM HILARY 1981-08-27 03:00:00 TS 21.5100 -123.686 main 1118 1118 P_________P___ EP081981 21.5074 -123.670 TS 42 0 21.5177 -123.734 2 42 8 256
1981234N18253 1981 69 EP MM HILARY 1981-08-27 06:00:00 TS 21.4054 -124.117 40 hurdat_epa main 1157 1157 O_________P___ hurdat_epa EP081981 21.4000 -124.100 TS 40 0 21.4215 -124.170 2 40 9 256
1981234N18253 1981 69 EP MM HILARY 1981-08-27 09:00:00 TS 21.3035 -124.583 main 1204 1204 P_________P___ EP081981 21.2998 -124.570 TS 37 0 21.3145 -124.621 2 37 9 257
1981234N18253 1981 69 EP MM HILARY 1981-08-27 12:00:00 TS 21.2000 -125.100 35 hurdat_epa main 1252 1252 O_________O___ hurdat_epa EP081981 21.2000 -125.100 TS 35 0 21.2000 -125.100 2 35 10 259
1981234N18253 1981 69 EP MM HILARY 1981-08-27 15:00:00 TS 21.0993 -125.684 main 1309 1309 P_________P___ EP081981 21.1076 -125.700 TS 32 -1 21.0743 -125.638 2 33 11 259
1981234N18253 1981 69 EP MM HILARY 1981-08-27 18:00:00 TS 20.9857 -126.275 30 hurdat_epa main 1366 1366 O_________P___ hurdat_epa EP081981 21.0000 -126.300 TD 30 -1 20.9429 -126.200 2 32 11 256
1981234N18253 1981 69 EP MM HILARY 1981-08-27 21:00:00 TS 20.8411 -126.808 main 1421 1421 P_________P___ EP081981 20.8498 -126.823 TD 30 -1 20.8149 -126.763 2 31 10 253
1981234N18253 1981 69 EP MM HILARY 1981-08-28 00:00:00 TS 20.7000 -127.300 30 hurdat_epa main 1470 1470 O_________O___ hurdat_epa EP081981 20.7000 -127.300 TD 30 -1 20.7000 -127.300 1 30 9 254
1981234N18253 1981 69 EP MM HILARY 1981-08-28 03:00:00 TS 20.5927 -127.762 main 1519 1519 P_________P___ EP081981 20.5848 -127.757 TD 30 -1 20.6162 -127.777 1 28 9 257
1981234N18253 1981 69 EP MM HILARY 1981-08-28 06:00:00 TS 20.5114 -128.207 30 hurdat_epa main 1560 1560 O_________P___ hurdat_epa EP081981 20.5000 -128.200 TD 30 -1 20.5458 -128.227 1 27 8 261
1981234N18253 1981 69 EP MM HILARY 1981-08-28 09:00:00 TS 20.4568 -128.653 main 1604 1604 P_________P___ EP081981 20.4499 -128.650 TD 27 -1 20.4775 -128.663 1 26 8 262
1981234N18253 1981 69 EP MM HILARY 1981-08-28 12:00:00 TS 20.4000 -129.100 25 hurdat_epa main 1645 1645 O_________O___ hurdat_epa EP081981 20.4000 -129.100 TD 25 -1 20.4000 -129.100 1 25 9 260
1981234N18253 1981 69 EP MM HILARY 1981-08-28 15:00:00 TS 20.3109 -129.549 main 1686 1686 P_________P___ EP081981 20.3127 -129.550 TD 25 -1 20.3055 -129.547 1 25 9 257
1981234N18253 1981 69 EP MM HILARY 1981-08-28 18:00:00 TS 20.2000 -130.000 25 hurdat_epa main 1736 O_________O___ hurdat_epa EP081981 20.2000 -130.000 TD 25 -1 20.2000 -130.000 1 25 9 255

IBTrACS Databaseについて

本データベースは、米国NOAAが公開する1842年以降の世界の熱帯低気圧のベストトラックデータアーカイブInternational Best Track Archive for Climate Stewardship (IBTrACS)を、ウェブで閲覧しやすい形式に変換したものです。

最終更新日:2021-12-08